sensor_id;sensor_type;location;lat;lon;timestamp;P1;durP1;ratioP1;P2;durP2;ratioP2
34278;SDS011;20538;51.528;9.942;2023-02-08T00:01:16;51.67;;;22.92;;
34278;SDS011;20538;51.528;9.942;2023-02-08T00:03:43;55.65;;;23.20;;
34278;SDS011;20538;51.528;9.942;2023-02-08T00:06:11;50.05;;;22.25;;
34278;SDS011;20538;51.528;9.942;2023-02-08T00:08:38;56.40;;;23.13;;
34278;SDS011;20538;51.528;9.942;2023-02-08T00:11:04;49.22;;;21.60;;
34278;SDS011;20538;51.528;9.942;2023-02-08T00:13:32;51.50;;;23.08;;
34278;SDS011;20538;51.528;9.942;2023-02-08T00:15:58;49.20;;;20.77;;
34278;SDS011;20538;51.528;9.942;2023-02-08T00:18:24;53.50;;;21.63;;
34278;SDS011;20538;51.528;9.942;2023-02-08T00:20:50;58.28;;;25.05;;
34278;SDS011;20538;51.528;9.942;2023-02-08T00:23:16;65.95;;;24.58;;
34278;SDS011;20538;51.528;9.942;2023-02-08T00:25:42;54.80;;;22.08;;
34278;SDS011;20538;51.528;9.942;2023-02-08T00:28:08;59.70;;;22.73;;
34278;SDS011;20538;51.528;9.942;2023-02-08T00:30:36;52.45;;;22.05;;
34278;SDS011;20538;51.528;9.942;2023-02-08T00:33:03;56.75;;;23.20;;
34278;SDS011;20538;51.528;9.942;2023-02-08T00:35:28;59.42;;;22.60;;
34278;SDS011;20538;51.528;9.942;2023-02-08T00:37:54;56.42;;;22.55;;
34278;SDS011;20538;51.528;9.942;2023-02-08T00:40:20;52.63;;;22.38;;
34278;SDS011;20538;51.528;9.942;2023-02-08T00:42:46;52.10;;;22.60;;
34278;SDS011;20538;51.528;9.942;2023-02-08T00:45:12;51.97;;;21.15;;
34278;SDS011;20538;51.528;9.942;2023-02-08T00:47:37;53.58;;;22.15;;
34278;SDS011;20538;51.528;9.942;2023-02-08T00:50:03;53.70;;;21.42;;
34278;SDS011;20538;51.528;9.942;2023-02-08T00:52:30;46.75;;;19.88;;
34278;SDS011;20538;51.528;9.942;2023-02-08T00:54:55;48.25;;;20.58;;
34278;SDS011;20538;51.528;9.942;2023-02-08T00:57:21;45.53;;;18.88;;
34278;SDS011;20538;51.528;9.942;2023-02-08T00:59:47;37.03;;;15.73;;
34278;SDS011;20538;51.528;9.942;2023-02-08T01:02:12;39.47;;;15.38;;
34278;SDS011;20538;51.528;9.942;2023-02-08T01:04:38;35.55;;;15.10;;
34278;SDS011;20538;51.528;9.942;2023-02-08T01:07:04;33.72;;;13.75;;
34278;SDS011;20538;51.528;9.942;2023-02-08T01:09:31;33.10;;;14.93;;
34278;SDS011;20538;51.528;9.942;2023-02-08T01:11:57;29.35;;;13.32;;
34278;SDS011;20538;51.528;9.942;2023-02-08T01:14:23;32.65;;;14.18;;
34278;SDS011;20538;51.528;9.942;2023-02-08T01:16:49;34.72;;;14.25;;
34278;SDS011;20538;51.528;9.942;2023-02-08T01:19:14;32.30;;;14.70;;
34278;SDS011;20538;51.528;9.942;2023-02-08T01:21:41;32.60;;;14.55;;
34278;SDS011;20538;51.528;9.942;2023-02-08T01:24:08;31.60;;;14.93;;
34278;SDS011;20538;51.528;9.942;2023-02-08T01:26:34;39.70;;;16.75;;
34278;SDS011;20538;51.528;9.942;2023-02-08T01:29:00;35.00;;;14.65;;
34278;SDS011;20538;51.528;9.942;2023-02-08T01:31:27;35.60;;;15.20;;
34278;SDS011;20538;51.528;9.942;2023-02-08T01:33:57;31.88;;;15.13;;
34278;SDS011;20538;51.528;9.942;2023-02-08T01:36:24;38.60;;;15.82;;
34278;SDS011;20538;51.528;9.942;2023-02-08T01:38:51;36.42;;;15.05;;
34278;SDS011;20538;51.528;9.942;2023-02-08T01:41:19;41.10;;;16.60;;
34278;SDS011;20538;51.528;9.942;2023-02-08T01:46:37;41.00;;;16.13;;
34278;SDS011;20538;51.528;9.942;2023-02-08T01:49:10;38.45;;;16.08;;
34278;SDS011;20538;51.528;9.942;2023-02-08T01:51:46;40.35;;;16.48;;
34278;SDS011;20538;51.528;9.942;2023-02-08T01:54:18;45.28;;;18.48;;
34278;SDS011;20538;51.528;9.942;2023-02-08T01:56:48;50.90;;;20.63;;
34278;SDS011;20538;51.528;9.942;2023-02-08T01:59:25;53.83;;;21.17;;
34278;SDS011;20538;51.528;9.942;2023-02-08T02:01:55;49.55;;;20.42;;
34278;SDS011;20538;51.528;9.942;2023-02-08T02:04:23;46.85;;;20.38;;
34278;SDS011;20538;51.528;9.942;2023-02-08T02:06:52;46.13;;;20.08;;
34278;SDS011;20538;51.528;9.942;2023-02-08T02:09:23;53.47;;;20.58;;
34278;SDS011;20538;51.528;9.942;2023-02-08T02:11:55;49.40;;;21.17;;
34278;SDS011;20538;51.528;9.942;2023-02-08T02:14:21;54.20;;;23.48;;
34278;SDS011;20538;51.528;9.942;2023-02-08T02:16:47;52.67;;;23.45;;
34278;SDS011;20538;51.528;9.942;2023-02-08T02:21:55;57.60;;;22.77;;
34278;SDS011;20538;51.528;9.942;2023-02-08T02:27:18;53.63;;;22.77;;
34278;SDS011;20538;51.528;9.942;2023-02-08T02:32:50;53.20;;;23.88;;
34278;SDS011;20538;51.528;9.942;2023-02-08T02:38:19;55.53;;;22.65;;
34278;SDS011;20538;51.528;9.942;2023-02-08T02:44:37;50.53;;;22.30;;
34278;SDS011;20538;51.528;9.942;2023-02-08T02:50:18;51.80;;;22.90;;
34278;SDS011;20538;51.528;9.942;2023-02-08T02:55:27;55.00;;;22.85;;
34278;SDS011;20538;51.528;9.942;2023-02-08T02:57:56;48.72;;;21.98;;
34278;SDS011;20538;51.528;9.942;2023-02-08T03:00:25;57.38;;;22.65;;
34278;SDS011;20538;51.528;9.942;2023-02-08T03:02:52;52.75;;;22.15;;
34278;SDS011;20538;51.528;9.942;2023-02-08T03:05:20;51.13;;;21.08;;
34278;SDS011;20538;51.528;9.942;2023-02-08T03:13:28;57.58;;;23.73;;
34278;SDS011;20538;51.528;9.942;2023-02-08T03:21:42;54.80;;;22.42;;
34278;SDS011;20538;51.528;9.942;2023-02-08T03:26:54;52.35;;;21.55;;
34278;SDS011;20538;51.528;9.942;2023-02-08T03:32:35;58.95;;;23.63;;
34278;SDS011;20538;51.528;9.942;2023-02-08T03:37:54;55.75;;;23.00;;
34278;SDS011;20538;51.528;9.942;2023-02-08T03:40:29;57.80;;;22.98;;
34278;SDS011;20538;51.528;9.942;2023-02-08T03:43:06;59.10;;;24.13;;
34278;SDS011;20538;51.528;9.942;2023-02-08T03:45:47;56.35;;;22.27;;
34278;SDS011;20538;51.528;9.942;2023-02-08T03:48:16;61.47;;;23.67;;
34278;SDS011;20538;51.528;9.942;2023-02-08T03:50:46;60.25;;;24.05;;
34278;SDS011;20538;51.528;9.942;2023-02-08T03:53:14;59.35;;;24.48;;
34278;SDS011;20538;51.528;9.942;2023-02-08T03:55:44;59.25;;;25.15;;
34278;SDS011;20538;51.528;9.942;2023-02-08T03:58:17;57.17;;;23.95;;
34278;SDS011;20538;51.528;9.942;2023-02-08T04:00:48;56.13;;;23.20;;
34278;SDS011;20538;51.528;9.942;2023-02-08T04:03:24;65.57;;;24.90;;
34278;SDS011;20538;51.528;9.942;2023-02-08T04:05:52;60.33;;;25.50;;
34278;SDS011;20538;51.528;9.942;2023-02-08T04:08:18;56.38;;;23.30;;
34278;SDS011;20538;51.528;9.942;2023-02-08T04:10:47;58.50;;;24.67;;
34278;SDS011;20538;51.528;9.942;2023-02-08T04:13:12;61.72;;;23.65;;
34278;SDS011;20538;51.528;9.942;2023-02-08T04:15:38;58.22;;;24.38;;
34278;SDS011;20538;51.528;9.942;2023-02-08T04:18:04;61.42;;;24.23;;
34278;SDS011;20538;51.528;9.942;2023-02-08T04:20:30;61.97;;;24.25;;
34278;SDS011;20538;51.528;9.942;2023-02-08T04:22:55;70.05;;;24.13;;
34278;SDS011;20538;51.528;9.942;2023-02-08T04:25:21;72.10;;;25.45;;
34278;SDS011;20538;51.528;9.942;2023-02-08T04:27:47;65.53;;;24.83;;
34278;SDS011;20538;51.528;9.942;2023-02-08T04:30:12;62.38;;;24.17;;
34278;SDS011;20538;51.528;9.942;2023-02-08T04:32:38;68.97;;;27.02;;
34278;SDS011;20538;51.528;9.942;2023-02-08T04:35:04;63.15;;;25.63;;
34278;SDS011;20538;51.528;9.942;2023-02-08T04:37:30;67.07;;;26.45;;
34278;SDS011;20538;51.528;9.942;2023-02-08T04:39:56;68.70;;;25.35;;
34278;SDS011;20538;51.528;9.942;2023-02-08T04:42:22;63.17;;;26.02;;
34278;SDS011;20538;51.528;9.942;2023-02-08T04:44:48;66.43;;;24.92;;
34278;SDS011;20538;51.528;9.942;2023-02-08T04:47:13;59.50;;;24.00;;
34278;SDS011;20538;51.528;9.942;2023-02-08T04:49:39;62.15;;;23.75;;
34278;SDS011;20538;51.528;9.942;2023-02-08T04:52:05;69.20;;;25.85;;
34278;SDS011;20538;51.528;9.942;2023-02-08T04:54:30;65.15;;;23.85;;
34278;SDS011;20538;51.528;9.942;2023-02-08T04:56:56;50.25;;;22.48;;
34278;SDS011;20538;51.528;9.942;2023-02-08T04:59:22;56.65;;;22.63;;
34278;SDS011;20538;51.528;9.942;2023-02-08T05:01:47;55.35;;;22.00;;
34278;SDS011;20538;51.528;9.942;2023-02-08T05:04:13;57.22;;;23.15;;
34278;SDS011;20538;51.528;9.942;2023-02-08T05:06:38;48.03;;;19.63;;
34278;SDS011;20538;51.528;9.942;2023-02-08T05:09:07;48.00;;;20.75;;
34278;SDS011;20538;51.528;9.942;2023-02-08T05:11:33;50.17;;;20.75;;
34278;SDS011;20538;51.528;9.942;2023-02-08T05:14:00;53.72;;;20.63;;
34278;SDS011;20538;51.528;9.942;2023-02-08T05:16:26;50.90;;;20.55;;
34278;SDS011;20538;51.528;9.942;2023-02-08T05:18:53;51.53;;;20.17;;
34278;SDS011;20538;51.528;9.942;2023-02-08T05:21:20;44.42;;;17.35;;
34278;SDS011;20538;51.528;9.942;2023-02-08T05:23:47;55.15;;;19.80;;
34278;SDS011;20538;51.528;9.942;2023-02-08T05:26:14;52.85;;;19.98;;
34278;SDS011;20538;51.528;9.942;2023-02-08T05:28:39;46.17;;;18.33;;
34278;SDS011;20538;51.528;9.942;2023-02-08T05:31:13;51.33;;;20.83;;
34278;SDS011;20538;51.528;9.942;2023-02-08T05:33:42;54.95;;;19.80;;
34278;SDS011;20538;51.528;9.942;2023-02-08T05:36:07;50.17;;;20.95;;
34278;SDS011;20538;51.528;9.942;2023-02-08T05:38:33;56.50;;;21.60;;
34278;SDS011;20538;51.528;9.942;2023-02-08T05:40:59;56.35;;;21.55;;
34278;SDS011;20538;51.528;9.942;2023-02-08T05:43:25;51.05;;;20.17;;
34278;SDS011;20538;51.528;9.942;2023-02-08T05:45:50;57.80;;;21.33;;
34278;SDS011;20538;51.528;9.942;2023-02-08T05:48:16;53.33;;;21.02;;
34278;SDS011;20538;51.528;9.942;2023-02-08T05:50:42;53.75;;;21.73;;
34278;SDS011;20538;51.528;9.942;2023-02-08T05:53:07;56.13;;;22.98;;
34278;SDS011;20538;51.528;9.942;2023-02-08T05:55:33;60.75;;;23.05;;
34278;SDS011;20538;51.528;9.942;2023-02-08T05:57:59;64.70;;;25.10;;
34278;SDS011;20538;51.528;9.942;2023-02-08T06:00:24;58.30;;;23.88;;
34278;SDS011;20538;51.528;9.942;2023-02-08T06:02:50;65.43;;;23.77;;
34278;SDS011;20538;51.528;9.942;2023-02-08T06:05:16;65.85;;;25.27;;
34278;SDS011;20538;51.528;9.942;2023-02-08T06:07:42;65.65;;;25.13;;
34278;SDS011;20538;51.528;9.942;2023-02-08T06:10:07;65.70;;;25.70;;
34278;SDS011;20538;51.528;9.942;2023-02-08T06:12:33;66.18;;;26.40;;
34278;SDS011;20538;51.528;9.942;2023-02-08T06:14:59;65.03;;;25.35;;
34278;SDS011;20538;51.528;9.942;2023-02-08T06:17:25;63.10;;;24.63;;
34278;SDS011;20538;51.528;9.942;2023-02-08T06:19:50;67.57;;;27.00;;
34278;SDS011;20538;51.528;9.942;2023-02-08T06:22:16;65.95;;;25.88;;
34278;SDS011;20538;51.528;9.942;2023-02-08T06:24:41;61.58;;;24.83;;
34278;SDS011;20538;51.528;9.942;2023-02-08T06:27:07;55.08;;;24.20;;
34278;SDS011;20538;51.528;9.942;2023-02-08T06:29:33;64.85;;;24.85;;
34278;SDS011;20538;51.528;9.942;2023-02-08T06:31:58;60.67;;;25.02;;
34278;SDS011;20538;51.528;9.942;2023-02-08T06:34:24;66.40;;;26.10;;
34278;SDS011;20538;51.528;9.942;2023-02-08T06:36:50;58.80;;;24.60;;
34278;SDS011;20538;51.528;9.942;2023-02-08T06:39:15;67.20;;;25.83;;
34278;SDS011;20538;51.528;9.942;2023-02-08T06:41:41;68.18;;;25.02;;
34278;SDS011;20538;51.528;9.942;2023-02-08T06:44:06;62.83;;;25.67;;
34278;SDS011;20538;51.528;9.942;2023-02-08T06:46:32;69.18;;;25.48;;
34278;SDS011;20538;51.528;9.942;2023-02-08T06:49:01;62.75;;;24.45;;
34278;SDS011;20538;51.528;9.942;2023-02-08T06:51:26;53.78;;;24.15;;
34278;SDS011;20538;51.528;9.942;2023-02-08T06:53:52;58.17;;;23.38;;
34278;SDS011;20538;51.528;9.942;2023-02-08T06:56:18;64.03;;;27.33;;
34278;SDS011;20538;51.528;9.942;2023-02-08T06:58:43;64.95;;;24.67;;
34278;SDS011;20538;51.528;9.942;2023-02-08T07:01:13;60.65;;;24.52;;
34278;SDS011;20538;51.528;9.942;2023-02-08T07:03:39;64.72;;;25.25;;
34278;SDS011;20538;51.528;9.942;2023-02-08T07:06:09;65.63;;;25.58;;
34278;SDS011;20538;51.528;9.942;2023-02-08T07:08:39;65.13;;;26.85;;
34278;SDS011;20538;51.528;9.942;2023-02-08T07:11:08;67.47;;;26.73;;
34278;SDS011;20538;51.528;9.942;2023-02-08T07:13:35;76.82;;;27.75;;
34278;SDS011;20538;51.528;9.942;2023-02-08T07:16:01;66.57;;;27.02;;
34278;SDS011;20538;51.528;9.942;2023-02-08T07:18:30;76.82;;;28.20;;
34278;SDS011;20538;51.528;9.942;2023-02-08T07:20:56;67.30;;;26.67;;
34278;SDS011;20538;51.528;9.942;2023-02-08T07:23:22;73.15;;;28.60;;
34278;SDS011;20538;51.528;9.942;2023-02-08T07:25:57;69.55;;;29.42;;
34278;SDS011;20538;51.528;9.942;2023-02-08T07:28:27;70.60;;;29.27;;
34278;SDS011;20538;51.528;9.942;2023-02-08T07:30:54;65.38;;;26.95;;
34278;SDS011;20538;51.528;9.942;2023-02-08T07:33:20;67.80;;;28.02;;
34278;SDS011;20538;51.528;9.942;2023-02-08T07:35:46;63.75;;;28.35;;
34278;SDS011;20538;51.528;9.942;2023-02-08T07:38:12;70.18;;;28.60;;
34278;SDS011;20538;51.528;9.942;2023-02-08T07:40:37;66.22;;;28.13;;
34278;SDS011;20538;51.528;9.942;2023-02-08T07:43:05;65.55;;;26.90;;
34278;SDS011;20538;51.528;9.942;2023-02-08T07:45:30;74.68;;;28.35;;
34278;SDS011;20538;51.528;9.942;2023-02-08T07:47:57;66.40;;;26.80;;
34278;SDS011;20538;51.528;9.942;2023-02-08T07:50:23;68.95;;;28.45;;
34278;SDS011;20538;51.528;9.942;2023-02-08T07:52:48;67.50;;;27.50;;
34278;SDS011;20538;51.528;9.942;2023-02-08T07:55:14;70.00;;;27.73;;
34278;SDS011;20538;51.528;9.942;2023-02-08T07:57:44;68.68;;;27.52;;
34278;SDS011;20538;51.528;9.942;2023-02-08T08:00:12;64.75;;;26.52;;
34278;SDS011;20538;51.528;9.942;2023-02-08T08:02:38;69.97;;;27.95;;
34278;SDS011;20538;51.528;9.942;2023-02-08T08:05:05;61.10;;;27.63;;
34278;SDS011;20538;51.528;9.942;2023-02-08T08:07:31;65.28;;;26.05;;
34278;SDS011;20538;51.528;9.942;2023-02-08T08:09:57;66.05;;;25.77;;
34278;SDS011;20538;51.528;9.942;2023-02-08T08:12:23;66.28;;;27.23;;
34278;SDS011;20538;51.528;9.942;2023-02-08T08:14:49;72.60;;;27.55;;
34278;SDS011;20538;51.528;9.942;2023-02-08T08:17:15;66.50;;;26.05;;
34278;SDS011;20538;51.528;9.942;2023-02-08T08:19:41;68.18;;;26.90;;
34278;SDS011;20538;51.528;9.942;2023-02-08T08:22:07;65.43;;;26.50;;
34278;SDS011;20538;51.528;9.942;2023-02-08T08:24:33;59.25;;;26.05;;
34278;SDS011;20538;51.528;9.942;2023-02-08T08:27:01;63.55;;;26.65;;
34278;SDS011;20538;51.528;9.942;2023-02-08T08:29:29;63.80;;;27.65;;
34278;SDS011;20538;51.528;9.942;2023-02-08T08:31:56;57.92;;;25.67;;
34278;SDS011;20538;51.528;9.942;2023-02-08T08:34:21;64.45;;;27.33;;
34278;SDS011;20538;51.528;9.942;2023-02-08T08:36:53;64.80;;;27.25;;
34278;SDS011;20538;51.528;9.942;2023-02-08T08:39:26;67.03;;;27.15;;
34278;SDS011;20538;51.528;9.942;2023-02-08T08:41:52;69.20;;;28.10;;
34278;SDS011;20538;51.528;9.942;2023-02-08T08:44:21;69.97;;;28.67;;
34278;SDS011;20538;51.528;9.942;2023-02-08T08:46:47;67.38;;;26.98;;
34278;SDS011;20538;51.528;9.942;2023-02-08T08:49:12;65.45;;;26.75;;
34278;SDS011;20538;51.528;9.942;2023-02-08T08:51:38;70.03;;;27.90;;
34278;SDS011;20538;51.528;9.942;2023-02-08T08:54:04;66.88;;;27.25;;
34278;SDS011;20538;51.528;9.942;2023-02-08T08:56:30;64.13;;;26.52;;
34278;SDS011;20538;51.528;9.942;2023-02-08T08:58:55;62.35;;;27.27;;
34278;SDS011;20538;51.528;9.942;2023-02-08T09:01:21;67.97;;;27.58;;
34278;SDS011;20538;51.528;9.942;2023-02-08T09:03:47;67.57;;;28.05;;
34278;SDS011;20538;51.528;9.942;2023-02-08T09:06:13;69.82;;;28.17;;
34278;SDS011;20538;51.528;9.942;2023-02-08T09:08:39;61.47;;;26.48;;
34278;SDS011;20538;51.528;9.942;2023-02-08T09:11:08;66.47;;;27.27;;
34278;SDS011;20538;51.528;9.942;2023-02-08T09:13:36;63.20;;;26.25;;
34278;SDS011;20538;51.528;9.942;2023-02-08T09:16:06;63.90;;;26.77;;
34278;SDS011;20538;51.528;9.942;2023-02-08T09:18:34;65.47;;;27.25;;
34278;SDS011;20538;51.528;9.942;2023-02-08T09:21:04;57.97;;;25.17;;
34278;SDS011;20538;51.528;9.942;2023-02-08T09:23:34;63.55;;;27.45;;
34278;SDS011;20538;51.528;9.942;2023-02-08T09:26:01;57.95;;;27.45;;
34278;SDS011;20538;51.528;9.942;2023-02-08T09:28:27;61.65;;;27.17;;
34278;SDS011;20538;51.528;9.942;2023-02-08T09:30:56;60.20;;;25.92;;
34278;SDS011;20538;51.528;9.942;2023-02-08T09:33:23;61.80;;;25.67;;
34278;SDS011;20538;51.528;9.942;2023-02-08T09:35:48;59.90;;;26.27;;
34278;SDS011;20538;51.528;9.942;2023-02-08T09:38:14;61.30;;;27.88;;
34278;SDS011;20538;51.528;9.942;2023-02-08T09:40:48;59.17;;;27.58;;
34278;SDS011;20538;51.528;9.942;2023-02-08T09:46:18;65.47;;;28.05;;
34278;SDS011;20538;51.528;9.942;2023-02-08T09:48:47;59.85;;;26.42;;
34278;SDS011;20538;51.528;9.942;2023-02-08T09:54:01;59.67;;;25.58;;
34278;SDS011;20538;51.528;9.942;2023-02-08T10:01:33;55.05;;;24.33;;
34278;SDS011;20538;51.528;9.942;2023-02-08T10:06:31;58.97;;;26.88;;
34278;SDS011;20538;51.528;9.942;2023-02-08T10:08:57;56.70;;;25.42;;
34278;SDS011;20538;51.528;9.942;2023-02-08T10:19:27;48.97;;;21.98;;
34278;SDS011;20538;51.528;9.942;2023-02-08T10:33:20;42.85;;;19.45;;
34278;SDS011;20538;51.528;9.942;2023-02-08T10:35:52;37.95;;;17.25;;
34278;SDS011;20538;51.528;9.942;2023-02-08T10:41:00;44.63;;;17.92;;
34278;SDS011;20538;51.528;9.942;2023-02-08T10:48:54;37.95;;;17.33;;
34278;SDS011;20538;51.528;9.942;2023-02-08T10:51:25;36.72;;;15.65;;
34278;SDS011;20538;51.528;9.942;2023-02-08T10:53:52;46.28;;;17.38;;
34278;SDS011;20538;51.528;9.942;2023-02-08T10:56:32;33.97;;;15.75;;
34278;SDS011;20538;51.528;9.942;2023-02-08T10:59:20;32.72;;;15.20;;
34278;SDS011;20538;51.528;9.942;2023-02-08T11:01:49;38.15;;;17.38;;
34278;SDS011;20538;51.528;9.942;2023-02-08T11:04:17;39.00;;;16.90;;
34278;SDS011;20538;51.528;9.942;2023-02-08T11:06:43;34.85;;;16.42;;
34278;SDS011;20538;51.528;9.942;2023-02-08T11:09:20;36.05;;;16.67;;
34278;SDS011;20538;51.528;9.942;2023-02-08T11:11:53;39.10;;;17.40;;
34278;SDS011;20538;51.528;9.942;2023-02-08T11:17:25;48.65;;;21.35;;
34278;SDS011;20538;51.528;9.942;2023-02-08T11:19:53;45.00;;;21.55;;
34278;SDS011;20538;51.528;9.942;2023-02-08T11:22:21;48.78;;;21.98;;
34278;SDS011;20538;51.528;9.942;2023-02-08T11:24:58;41.47;;;20.45;;
34278;SDS011;20538;51.528;9.942;2023-02-08T11:27:30;45.35;;;20.35;;
34278;SDS011;20538;51.528;9.942;2023-02-08T11:32:40;42.75;;;20.63;;
34278;SDS011;20538;51.528;9.942;2023-02-08T11:37:49;42.85;;;20.40;;
34278;SDS011;20538;51.528;9.942;2023-02-08T11:40:30;43.78;;;20.48;;
34278;SDS011;20538;51.528;9.942;2023-02-08T11:43:00;46.78;;;20.67;;
34278;SDS011;20538;51.528;9.942;2023-02-08T11:45:30;46.58;;;20.90;;
34278;SDS011;20538;51.528;9.942;2023-02-08T11:47:58;42.42;;;19.25;;
34278;SDS011;20538;51.528;9.942;2023-02-08T11:50:37;47.95;;;22.20;;
34278;SDS011;20538;51.528;9.942;2023-02-08T11:53:05;50.03;;;21.33;;
34278;SDS011;20538;51.528;9.942;2023-02-08T11:55:33;46.45;;;21.10;;
34278;SDS011;20538;51.528;9.942;2023-02-08T11:58:03;45.20;;;20.27;;
34278;SDS011;20538;51.528;9.942;2023-02-08T12:00:39;38.45;;;17.30;;
34278;SDS011;20538;51.528;9.942;2023-02-08T12:03:15;39.17;;;17.77;;
34278;SDS011;20538;51.528;9.942;2023-02-08T12:14:11;32.53;;;15.40;;
34278;SDS011;20538;51.528;9.942;2023-02-08T12:17:02;25.48;;;11.65;;
34278;SDS011;20538;51.528;9.942;2023-02-08T12:22:26;22.30;;;11.07;;
34278;SDS011;20538;51.528;9.942;2023-02-08T12:25:05;21.73;;;10.63;;
34278;SDS011;20538;51.528;9.942;2023-02-08T12:27:46;26.23;;;11.20;;
34278;SDS011;20538;51.528;9.942;2023-02-08T12:30:29;21.13;;;9.90;;
34278;SDS011;20538;51.528;9.942;2023-02-08T12:47:31;19.15;;;9.15;;
34278;SDS011;20538;51.528;9.942;2023-02-08T12:53:08;18.65;;;8.35;;
34278;SDS011;20538;51.528;9.942;2023-02-08T12:55:44;18.23;;;9.45;;
34278;SDS011;20538;51.528;9.942;2023-02-08T13:01:13;22.70;;;9.55;;
34278;SDS011;20538;51.528;9.942;2023-02-08T13:03:51;22.35;;;10.05;;
34278;SDS011;20538;51.528;9.942;2023-02-08T13:06:31;20.00;;;9.23;;
34278;SDS011;20538;51.528;9.942;2023-02-08T13:09:15;19.50;;;9.38;;
34278;SDS011;20538;51.528;9.942;2023-02-08T13:14:42;19.52;;;9.55;;
34278;SDS011;20538;51.528;9.942;2023-02-08T13:17:18;19.67;;;8.68;;
34278;SDS011;20538;51.528;9.942;2023-02-08T13:19:53;21.95;;;9.07;;
34278;SDS011;20538;51.528;9.942;2023-02-08T13:22:20;17.83;;;8.30;;
34278;SDS011;20538;51.528;9.942;2023-02-08T13:24:46;16.70;;;7.82;;
34278;SDS011;20538;51.528;9.942;2023-02-08T13:27:14;21.20;;;7.80;;
34278;SDS011;20538;51.528;9.942;2023-02-08T13:29:45;15.57;;;8.10;;
34278;SDS011;20538;51.528;9.942;2023-02-08T13:37:31;18.77;;;7.60;;
34278;SDS011;20538;51.528;9.942;2023-02-08T13:40:00;32.65;;;17.45;;
34278;SDS011;20538;51.528;9.942;2023-02-08T13:42:35;16.35;;;8.40;;
34278;SDS011;20538;51.528;9.942;2023-02-08T13:45:08;20.85;;;8.32;;
34278;SDS011;20538;51.528;9.942;2023-02-08T13:47:47;19.40;;;7.88;;
34278;SDS011;20538;51.528;9.942;2023-02-08T13:53:01;20.13;;;7.63;;
34278;SDS011;20538;51.528;9.942;2023-02-08T13:57:54;18.95;;;8.00;;
34278;SDS011;20538;51.528;9.942;2023-02-08T14:00:22;18.55;;;8.68;;
34278;SDS011;20538;51.528;9.942;2023-02-08T14:02:58;20.92;;;8.63;;
34278;SDS011;20538;51.528;9.942;2023-02-08T14:05:47;19.70;;;8.70;;
34278;SDS011;20538;51.528;9.942;2023-02-08T14:13:53;22.23;;;9.27;;
34278;SDS011;20538;51.528;9.942;2023-02-08T14:16:40;21.45;;;8.57;;
34278;SDS011;20538;51.528;9.942;2023-02-08T14:21:42;19.60;;;8.35;;
34278;SDS011;20538;51.528;9.942;2023-02-08T14:26:43;18.30;;;7.82;;
34278;SDS011;20538;51.528;9.942;2023-02-08T14:29:15;18.67;;;9.65;;
34278;SDS011;20538;51.528;9.942;2023-02-08T14:31:51;20.42;;;9.23;;
34278;SDS011;20538;51.528;9.942;2023-02-08T14:34:22;18.95;;;8.63;;
34278;SDS011;20538;51.528;9.942;2023-02-08T14:37:01;19.33;;;8.85;;
34278;SDS011;20538;51.528;9.942;2023-02-08T14:39:31;18.73;;;8.82;;
34278;SDS011;20538;51.528;9.942;2023-02-08T14:41:59;21.17;;;9.43;;
34278;SDS011;20538;51.528;9.942;2023-02-08T14:50:12;20.40;;;9.23;;
34278;SDS011;20538;51.528;9.942;2023-02-08T14:52:42;22.08;;;9.75;;
34278;SDS011;20538;51.528;9.942;2023-02-08T14:55:44;23.30;;;12.00;;
34278;SDS011;20538;51.528;9.942;2023-02-08T14:58:23;25.75;;;10.13;;
34278;SDS011;20538;51.528;9.942;2023-02-08T15:00:52;21.83;;;10.45;;
34278;SDS011;20538;51.528;9.942;2023-02-08T15:03:19;18.40;;;9.23;;
34278;SDS011;20538;51.528;9.942;2023-02-08T15:08:32;22.40;;;10.60;;
34278;SDS011;20538;51.528;9.942;2023-02-08T15:10:58;23.67;;;10.00;;
34278;SDS011;20538;51.528;9.942;2023-02-08T15:13:24;24.05;;;11.07;;
34278;SDS011;20538;51.528;9.942;2023-02-08T15:15:53;26.83;;;9.73;;
34278;SDS011;20538;51.528;9.942;2023-02-08T15:18:22;26.73;;;10.10;;
34278;SDS011;20538;51.528;9.942;2023-02-08T15:21:00;26.83;;;10.63;;
34278;SDS011;20538;51.528;9.942;2023-02-08T15:23:28;28.55;;;11.32;;
34278;SDS011;20538;51.528;9.942;2023-02-08T15:26:04;28.25;;;11.02;;
34278;SDS011;20538;51.528;9.942;2023-02-08T15:28:43;28.45;;;11.65;;
34278;SDS011;20538;51.528;9.942;2023-02-08T15:31:13;27.38;;;11.23;;
34278;SDS011;20538;51.528;9.942;2023-02-08T15:33:42;24.63;;;11.13;;
34278;SDS011;20538;51.528;9.942;2023-02-08T15:36:16;26.70;;;11.00;;
34278;SDS011;20538;51.528;9.942;2023-02-08T15:38:46;29.35;;;10.88;;
34278;SDS011;20538;51.528;9.942;2023-02-08T15:41:26;28.88;;;11.32;;
34278;SDS011;20538;51.528;9.942;2023-02-08T15:44:27;24.20;;;10.30;;
34278;SDS011;20538;51.528;9.942;2023-02-08T15:46:47;23.95;;;10.57;;
34278;SDS011;20538;51.528;9.942;2023-02-08T15:49:23;25.52;;;10.77;;
34278;SDS011;20538;51.528;9.942;2023-02-08T15:51:54;24.73;;;11.30;;
34278;SDS011;20538;51.528;9.942;2023-02-08T15:54:21;32.10;;;13.23;;
34278;SDS011;20538;51.528;9.942;2023-02-08T15:56:49;33.20;;;12.68;;
34278;SDS011;20538;51.528;9.942;2023-02-08T15:59:32;30.15;;;15.05;;
34278;SDS011;20538;51.528;9.942;2023-02-08T16:02:14;34.30;;;15.10;;
34278;SDS011;20538;51.528;9.942;2023-02-08T16:04:47;26.55;;;11.02;;
34278;SDS011;20538;51.528;9.942;2023-02-08T16:07:20;32.72;;;14.32;;
34278;SDS011;20538;51.528;9.942;2023-02-08T16:09:53;35.08;;;14.43;;
34278;SDS011;20538;51.528;9.942;2023-02-08T16:12:21;33.45;;;14.88;;
34278;SDS011;20538;51.528;9.942;2023-02-08T16:14:49;33.80;;;14.88;;
34278;SDS011;20538;51.528;9.942;2023-02-08T16:20:19;37.85;;;16.85;;
34278;SDS011;20538;51.528;9.942;2023-02-08T16:22:52;36.47;;;14.82;;
34278;SDS011;20538;51.528;9.942;2023-02-08T16:27:48;38.08;;;15.70;;
34278;SDS011;20538;51.528;9.942;2023-02-08T16:30:18;36.33;;;15.32;;
34278;SDS011;20538;51.528;9.942;2023-02-08T16:32:45;32.50;;;15.73;;
34278;SDS011;20538;51.528;9.942;2023-02-08T16:35:12;34.88;;;15.23;;
34278;SDS011;20538;51.528;9.942;2023-02-08T16:37:43;36.15;;;17.30;;
34278;SDS011;20538;51.528;9.942;2023-02-08T16:48:36;37.78;;;16.67;;
34278;SDS011;20538;51.528;9.942;2023-02-08T16:51:05;40.30;;;16.95;;
34278;SDS011;20538;51.528;9.942;2023-02-08T16:53:35;41.55;;;18.15;;
34278;SDS011;20538;51.528;9.942;2023-02-08T16:56:00;42.88;;;18.58;;
34278;SDS011;20538;51.528;9.942;2023-02-08T16:58:26;43.10;;;18.63;;
34278;SDS011;20538;51.528;9.942;2023-02-08T17:00:52;44.47;;;19.45;;
34278;SDS011;20538;51.528;9.942;2023-02-08T17:03:17;53.25;;;19.88;;
34278;SDS011;20538;51.528;9.942;2023-02-08T17:05:44;49.55;;;19.70;;
34278;SDS011;20538;51.528;9.942;2023-02-08T17:08:12;45.40;;;19.60;;
34278;SDS011;20538;51.528;9.942;2023-02-08T17:10:41;42.78;;;18.77;;
34278;SDS011;20538;51.528;9.942;2023-02-08T17:13:08;44.58;;;19.15;;
34278;SDS011;20538;51.528;9.942;2023-02-08T17:15:34;43.40;;;17.65;;
34278;SDS011;20538;51.528;9.942;2023-02-08T17:18:00;43.83;;;19.23;;
34278;SDS011;20538;51.528;9.942;2023-02-08T17:20:27;42.70;;;18.20;;
34278;SDS011;20538;51.528;9.942;2023-02-08T17:22:55;46.33;;;19.60;;
34278;SDS011;20538;51.528;9.942;2023-02-08T17:25:23;38.60;;;18.10;;